sensor_id;sensor_type;location;lat;lon;timestamp;P1;durP1;ratioP1;P2;durP2;ratioP2
5774;SDS011;2913;51.120;6.772;2024-02-28T00:02:09;110.18;;;24.17;;
5774;SDS011;2913;51.120;6.772;2024-02-28T00:04:39;113.57;;;26.95;;
5774;SDS011;2913;51.120;6.772;2024-02-28T00:07:07;106.28;;;25.48;;
5774;SDS011;2913;51.120;6.772;2024-02-28T00:09:36;113.18;;;27.63;;
5774;SDS011;2913;51.120;6.772;2024-02-28T00:12:01;127.50;;;28.75;;
5774;SDS011;2913;51.120;6.772;2024-02-28T00:14:27;105.82;;;25.38;;
5774;SDS011;2913;51.120;6.772;2024-02-28T00:16:55;114.32;;;27.08;;
5774;SDS011;2913;51.120;6.772;2024-02-28T00:19:21;116.15;;;27.92;;
5774;SDS011;2913;51.120;6.772;2024-02-28T00:21:50;105.00;;;26.13;;
5774;SDS011;2913;51.120;6.772;2024-02-28T00:24:16;108.25;;;26.65;;
5774;SDS011;2913;51.120;6.772;2024-02-28T00:26:42;95.75;;;24.85;;
5774;SDS011;2913;51.120;6.772;2024-02-28T00:29:10;104.97;;;25.17;;
5774;SDS011;2913;51.120;6.772;2024-02-28T00:31:36;125.22;;;26.85;;
5774;SDS011;2913;51.120;6.772;2024-02-28T00:34:04;107.20;;;26.10;;
5774;SDS011;2913;51.120;6.772;2024-02-28T00:36:31;117.72;;;28.15;;
5774;SDS011;2913;51.120;6.772;2024-02-28T00:38:57;112.18;;;28.25;;
5774;SDS011;2913;51.120;6.772;2024-02-28T00:41:22;113.47;;;26.20;;
5774;SDS011;2913;51.120;6.772;2024-02-28T00:43:48;110.30;;;28.20;;
5774;SDS011;2913;51.120;6.772;2024-02-28T00:46:16;107.85;;;27.05;;
5774;SDS011;2913;51.120;6.772;2024-02-28T00:48:44;115.63;;;25.70;;
5774;SDS011;2913;51.120;6.772;2024-02-28T00:51:12;93.53;;;23.98;;
5774;SDS011;2913;51.120;6.772;2024-02-28T00:53:40;114.45;;;24.45;;
5774;SDS011;2913;51.120;6.772;2024-02-28T00:56:06;110.43;;;26.42;;
5774;SDS011;2913;51.120;6.772;2024-02-28T00:58:34;109.10;;;24.88;;
5774;SDS011;2913;51.120;6.772;2024-02-28T01:01:00;108.00;;;24.77;;
5774;SDS011;2913;51.120;6.772;2024-02-28T01:03:26;105.88;;;25.75;;
5774;SDS011;2913;51.120;6.772;2024-02-28T01:05:52;105.95;;;26.50;;
5774;SDS011;2913;51.120;6.772;2024-02-28T01:08:17;118.20;;;28.00;;
5774;SDS011;2913;51.120;6.772;2024-02-28T01:10:44;118.55;;;25.85;;
5774;SDS011;2913;51.120;6.772;2024-02-28T01:13:09;115.88;;;26.80;;
5774;SDS011;2913;51.120;6.772;2024-02-28T01:15:35;112.47;;;27.13;;
5774;SDS011;2913;51.120;6.772;2024-02-28T01:18:01;108.53;;;27.38;;
5774;SDS011;2913;51.120;6.772;2024-02-28T01:20:31;111.75;;;26.73;;
5774;SDS011;2913;51.120;6.772;2024-02-28T01:22:59;113.22;;;26.40;;
5774;SDS011;2913;51.120;6.772;2024-02-28T01:25:25;100.35;;;26.58;;
5774;SDS011;2913;51.120;6.772;2024-02-28T01:27:53;125.30;;;27.08;;
5774;SDS011;2913;51.120;6.772;2024-02-28T01:30:18;107.43;;;27.15;;
5774;SDS011;2913;51.120;6.772;2024-02-28T01:32:46;111.90;;;27.92;;
5774;SDS011;2913;51.120;6.772;2024-02-28T01:35:13;117.88;;;26.20;;
5774;SDS011;2913;51.120;6.772;2024-02-28T01:37:43;116.03;;;25.35;;
5774;SDS011;2913;51.120;6.772;2024-02-28T01:40:11;98.07;;;25.90;;
5774;SDS011;2913;51.120;6.772;2024-02-28T01:42:37;114.18;;;25.40;;
5774;SDS011;2913;51.120;6.772;2024-02-28T01:45:03;93.97;;;22.35;;
5774;SDS011;2913;51.120;6.772;2024-02-28T01:47:31;98.53;;;25.48;;
5774;SDS011;2913;51.120;6.772;2024-02-28T01:49:59;102.25;;;25.17;;
5774;SDS011;2913;51.120;6.772;2024-02-28T01:52:27;100.03;;;25.55;;
5774;SDS011;2913;51.120;6.772;2024-02-28T01:54:53;126.90;;;25.80;;
5774;SDS011;2913;51.120;6.772;2024-02-28T01:57:23;113.45;;;25.45;;
5774;SDS011;2913;51.120;6.772;2024-02-28T01:59:50;112.18;;;26.15;;
5774;SDS011;2913;51.120;6.772;2024-02-28T02:02:19;115.63;;;27.10;;
5774;SDS011;2913;51.120;6.772;2024-02-28T02:04:45;118.50;;;27.63;;
5774;SDS011;2913;51.120;6.772;2024-02-28T02:07:13;113.20;;;27.50;;
5774;SDS011;2913;51.120;6.772;2024-02-28T02:09:39;115.43;;;24.83;;
5774;SDS011;2913;51.120;6.772;2024-02-28T02:12:05;106.43;;;25.88;;
5774;SDS011;2913;51.120;6.772;2024-02-28T02:14:33;107.97;;;26.27;;
5774;SDS011;2913;51.120;6.772;2024-02-28T02:16:59;101.35;;;23.85;;
5774;SDS011;2913;51.120;6.772;2024-02-28T02:19:27;95.32;;;24.92;;
5774;SDS011;2913;51.120;6.772;2024-02-28T02:21:53;107.63;;;27.70;;
5774;SDS011;2913;51.120;6.772;2024-02-28T02:24:22;104.85;;;25.50;;
5774;SDS011;2913;51.120;6.772;2024-02-28T02:26:48;107.45;;;25.50;;
5774;SDS011;2913;51.120;6.772;2024-02-28T02:29:19;108.88;;;25.42;;
5774;SDS011;2913;51.120;6.772;2024-02-28T02:31:50;109.90;;;27.63;;
5774;SDS011;2913;51.120;6.772;2024-02-28T02:34:15;112.65;;;26.60;;
5774;SDS011;2913;51.120;6.772;2024-02-28T02:36:41;119.38;;;28.35;;
5774;SDS011;2913;51.120;6.772;2024-02-28T02:39:09;137.70;;;29.48;;
5774;SDS011;2913;51.120;6.772;2024-02-28T02:41:37;118.88;;;26.63;;
5774;SDS011;2913;51.120;6.772;2024-02-28T02:44:02;127.72;;;29.77;;
5774;SDS011;2913;51.120;6.772;2024-02-28T02:46:28;149.25;;;29.67;;
5774;SDS011;2913;51.120;6.772;2024-02-28T02:48:54;147.35;;;29.33;;
5774;SDS011;2913;51.120;6.772;2024-02-28T02:51:24;140.10;;;28.45;;
5774;SDS011;2913;51.120;6.772;2024-02-28T02:53:50;141.98;;;29.13;;
5774;SDS011;2913;51.120;6.772;2024-02-28T02:56:16;146.63;;;29.33;;
5774;SDS011;2913;51.120;6.772;2024-02-28T02:58:42;139.75;;;31.02;;
5774;SDS011;2913;51.120;6.772;2024-02-28T03:01:08;138.48;;;29.35;;
5774;SDS011;2913;51.120;6.772;2024-02-28T03:03:34;126.65;;;29.58;;
5774;SDS011;2913;51.120;6.772;2024-02-28T03:06:00;126.00;;;29.02;;
5774;SDS011;2913;51.120;6.772;2024-02-28T03:08:25;143.90;;;29.35;;
5774;SDS011;2913;51.120;6.772;2024-02-28T03:10:51;150.38;;;31.02;;
5774;SDS011;2913;51.120;6.772;2024-02-28T03:13:17;124.80;;;27.95;;
5774;SDS011;2913;51.120;6.772;2024-02-28T03:15:43;123.55;;;28.25;;
5774;SDS011;2913;51.120;6.772;2024-02-28T03:18:09;130.35;;;28.80;;
5774;SDS011;2913;51.120;6.772;2024-02-28T03:20:34;129.27;;;28.55;;
5774;SDS011;2913;51.120;6.772;2024-02-28T03:23:06;132.80;;;28.05;;
5774;SDS011;2913;51.120;6.772;2024-02-28T03:25:32;138.48;;;30.20;;
5774;SDS011;2913;51.120;6.772;2024-02-28T03:28:03;148.13;;;31.65;;
5774;SDS011;2913;51.120;6.772;2024-02-28T03:30:28;139.90;;;31.48;;
5774;SDS011;2913;51.120;6.772;2024-02-28T03:32:56;126.05;;;30.40;;
5774;SDS011;2913;51.120;6.772;2024-02-28T03:35:22;135.57;;;33.13;;
5774;SDS011;2913;51.120;6.772;2024-02-28T03:37:50;158.18;;;32.70;;
5774;SDS011;2913;51.120;6.772;2024-02-28T03:40:18;150.20;;;33.13;;
5774;SDS011;2913;51.120;6.772;2024-02-28T03:42:46;160.10;;;34.55;;
5774;SDS011;2913;51.120;6.772;2024-02-28T03:45:12;146.23;;;32.40;;
5774;SDS011;2913;51.120;6.772;2024-02-28T03:47:38;154.50;;;34.03;;
5774;SDS011;2913;51.120;6.772;2024-02-28T03:50:06;149.85;;;32.72;;
5774;SDS011;2913;51.120;6.772;2024-02-28T03:52:32;167.73;;;34.45;;
5774;SDS011;2913;51.120;6.772;2024-02-28T03:54:57;167.48;;;37.10;;
5774;SDS011;2913;51.120;6.772;2024-02-28T03:57:25;175.52;;;35.67;;
5774;SDS011;2913;51.120;6.772;2024-02-28T03:59:51;163.07;;;34.60;;
5774;SDS011;2913;51.120;6.772;2024-02-28T04:02:19;161.95;;;35.80;;
5774;SDS011;2913;51.120;6.772;2024-02-28T04:04:44;190.45;;;39.45;;
5774;SDS011;2913;51.120;6.772;2024-02-28T04:07:12;181.10;;;38.80;;
5774;SDS011;2913;51.120;6.772;2024-02-28T04:09:43;191.98;;;37.88;;
5774;SDS011;2913;51.120;6.772;2024-02-28T04:12:11;177.23;;;34.88;;
5774;SDS011;2913;51.120;6.772;2024-02-28T04:14:39;181.02;;;38.60;;
5774;SDS011;2913;51.120;6.772;2024-02-28T04:17:07;166.68;;;37.30;;
5774;SDS011;2913;51.120;6.772;2024-02-28T04:19:33;187.25;;;37.15;;
5774;SDS011;2913;51.120;6.772;2024-02-28T04:22:02;182.45;;;39.25;;
5774;SDS011;2913;51.120;6.772;2024-02-28T04:24:28;195.15;;;38.75;;
5774;SDS011;2913;51.120;6.772;2024-02-28T04:26:54;192.20;;;39.28;;
5774;SDS011;2913;51.120;6.772;2024-02-28T04:29:22;204.75;;;39.83;;
5774;SDS011;2913;51.120;6.772;2024-02-28T04:31:47;194.38;;;39.97;;
5774;SDS011;2913;51.120;6.772;2024-02-28T04:34:13;203.40;;;40.42;;
5774;SDS011;2913;51.120;6.772;2024-02-28T04:36:41;203.10;;;38.53;;
5774;SDS011;2913;51.120;6.772;2024-02-28T04:39:06;202.25;;;41.30;;
5774;SDS011;2913;51.120;6.772;2024-02-28T04:41:34;184.55;;;38.53;;
5774;SDS011;2913;51.120;6.772;2024-02-28T04:44:00;198.02;;;40.85;;
5774;SDS011;2913;51.120;6.772;2024-02-28T04:46:28;180.20;;;39.25;;
5774;SDS011;2913;51.120;6.772;2024-02-28T04:48:54;187.60;;;40.35;;
5774;SDS011;2913;51.120;6.772;2024-02-28T04:51:19;184.57;;;38.25;;
5774;SDS011;2913;51.120;6.772;2024-02-28T04:53:45;166.85;;;36.15;;
5774;SDS011;2913;51.120;6.772;2024-02-28T04:56:15;192.18;;;39.03;;
5774;SDS011;2913;51.120;6.772;2024-02-28T04:58:44;172.50;;;38.30;;
5774;SDS011;2913;51.120;6.772;2024-02-28T05:01:11;200.43;;;41.72;;
5774;SDS011;2913;51.120;6.772;2024-02-28T05:03:37;196.82;;;41.80;;
5774;SDS011;2913;51.120;6.772;2024-02-28T05:06:03;217.93;;;45.65;;
5774;SDS011;2913;51.120;6.772;2024-02-28T05:08:29;207.30;;;44.65;;
5774;SDS011;2913;51.120;6.772;2024-02-28T05:10:54;203.50;;;42.53;;
5774;SDS011;2913;51.120;6.772;2024-02-28T05:13:22;212.52;;;41.80;;
5774;SDS011;2913;51.120;6.772;2024-02-28T05:15:51;207.73;;;44.08;;
5774;SDS011;2913;51.120;6.772;2024-02-28T05:18:21;229.30;;;45.50;;
5774;SDS011;2913;51.120;6.772;2024-02-28T05:20:47;209.23;;;43.40;;
5774;SDS011;2913;51.120;6.772;2024-02-28T05:23:13;231.73;;;43.05;;
5774;SDS011;2913;51.120;6.772;2024-02-28T05:25:39;201.23;;;41.42;;
5774;SDS011;2913;51.120;6.772;2024-02-28T05:28:05;215.88;;;43.30;;
5774;SDS011;2913;51.120;6.772;2024-02-28T05:30:31;201.88;;;40.10;;
5774;SDS011;2913;51.120;6.772;2024-02-28T05:32:57;199.93;;;40.72;;
5774;SDS011;2913;51.120;6.772;2024-02-28T05:35:23;204.35;;;39.72;;
5774;SDS011;2913;51.120;6.772;2024-02-28T05:37:52;178.15;;;35.60;;
5774;SDS011;2913;51.120;6.772;2024-02-28T05:42:49;177.27;;;35.70;;
5774;SDS011;2913;51.120;6.772;2024-02-28T05:45:18;204.05;;;35.33;;
5774;SDS011;2913;51.120;6.772;2024-02-28T05:47:43;216.95;;;38.13;;
5774;SDS011;2913;51.120;6.772;2024-02-28T05:50:09;210.32;;;33.38;;
5774;SDS011;2913;51.120;6.772;2024-02-28T05:52:37;232.23;;;38.60;;
5774;SDS011;2913;51.120;6.772;2024-02-28T05:55:06;237.27;;;37.95;;
5774;SDS011;2913;51.120;6.772;2024-02-28T05:57:37;221.18;;;38.78;;
5774;SDS011;2913;51.120;6.772;2024-02-28T06:00:03;245.50;;;37.92;;
5774;SDS011;2913;51.120;6.772;2024-02-28T06:02:34;232.55;;;38.20;;
5774;SDS011;2913;51.120;6.772;2024-02-28T06:05:03;224.93;;;35.45;;
5774;SDS011;2913;51.120;6.772;2024-02-28T06:07:29;247.43;;;39.58;;
5774;SDS011;2913;51.120;6.772;2024-02-28T06:09:58;242.30;;;41.08;;
5774;SDS011;2913;51.120;6.772;2024-02-28T06:12:25;224.57;;;36.80;;
5774;SDS011;2913;51.120;6.772;2024-02-28T06:14:53;225.80;;;38.05;;
5774;SDS011;2913;51.120;6.772;2024-02-28T06:17:20;244.20;;;38.20;;
5774;SDS011;2913;51.120;6.772;2024-02-28T06:19:47;227.55;;;38.13;;
5774;SDS011;2913;51.120;6.772;2024-02-28T06:22:12;219.25;;;38.92;;
5774;SDS011;2913;51.120;6.772;2024-02-28T06:24:40;225.45;;;38.30;;
5774;SDS011;2913;51.120;6.772;2024-02-28T06:27:06;233.52;;;38.42;;
5774;SDS011;2913;51.120;6.772;2024-02-28T06:29:37;242.60;;;39.60;;
5774;SDS011;2913;51.120;6.772;2024-02-28T06:32:07;213.00;;;35.25;;
5774;SDS011;2913;51.120;6.772;2024-02-28T06:34:36;224.60;;;35.58;;
5774;SDS011;2913;51.120;6.772;2024-02-28T06:37:02;195.57;;;31.75;;
5774;SDS011;2913;51.120;6.772;2024-02-28T06:39:28;230.88;;;38.63;;
5774;SDS011;2913;51.120;6.772;2024-02-28T06:41:56;198.90;;;35.22;;
5774;SDS011;2913;51.120;6.772;2024-02-28T06:44:22;214.95;;;36.15;;
5774;SDS011;2913;51.120;6.772;2024-02-28T06:46:50;217.95;;;35.67;;
5774;SDS011;2913;51.120;6.772;2024-02-28T06:49:16;213.32;;;37.88;;
5774;SDS011;2913;51.120;6.772;2024-02-28T06:51:44;225.15;;;35.70;;
5774;SDS011;2913;51.120;6.772;2024-02-28T06:54:12;235.73;;;36.55;;
5774;SDS011;2913;51.120;6.772;2024-02-28T06:56:38;228.07;;;35.30;;
5774;SDS011;2913;51.120;6.772;2024-02-28T06:59:03;227.13;;;34.50;;
5774;SDS011;2913;51.120;6.772;2024-02-28T07:01:32;184.98;;;33.08;;
5774;SDS011;2913;51.120;6.772;2024-02-28T07:03:58;239.25;;;38.80;;
5774;SDS011;2913;51.120;6.772;2024-02-28T07:06:23;250.43;;;37.47;;
5774;SDS011;2913;51.120;6.772;2024-02-28T07:08:49;236.07;;;36.22;;
5774;SDS011;2913;51.120;6.772;2024-02-28T07:11:15;244.65;;;36.33;;
5774;SDS011;2913;51.120;6.772;2024-02-28T07:13:43;265.52;;;38.17;;
5774;SDS011;2913;51.120;6.772;2024-02-28T07:16:11;243.88;;;35.05;;
5774;SDS011;2913;51.120;6.772;2024-02-28T07:18:39;267.73;;;42.40;;
5774;SDS011;2913;51.120;6.772;2024-02-28T07:21:07;268.52;;;37.65;;
5774;SDS011;2913;51.120;6.772;2024-02-28T07:23:38;223.43;;;37.13;;
5774;SDS011;2913;51.120;6.772;2024-02-28T07:26:05;245.27;;;39.22;;
5774;SDS011;2913;51.120;6.772;2024-02-28T07:28:33;254.07;;;37.58;;
5774;SDS011;2913;51.120;6.772;2024-02-28T07:31:01;263.65;;;39.67;;
5774;SDS011;2913;51.120;6.772;2024-02-28T07:33:27;265.98;;;39.03;;
5774;SDS011;2913;51.120;6.772;2024-02-28T07:35:55;283.95;;;44.22;;
5774;SDS011;2913;51.120;6.772;2024-02-28T07:38:25;356.27;;;54.58;;
5774;SDS011;2913;51.120;6.772;2024-02-28T07:40:52;360.52;;;53.05;;
5774;SDS011;2913;51.120;6.772;2024-02-28T07:43:18;275.88;;;43.30;;
5774;SDS011;2913;51.120;6.772;2024-02-28T07:45:44;210.48;;;35.97;;
5774;SDS011;2913;51.120;6.772;2024-02-28T07:48:11;240.40;;;35.20;;
5774;SDS011;2913;51.120;6.772;2024-02-28T07:50:37;285.65;;;38.47;;
5774;SDS011;2913;51.120;6.772;2024-02-28T07:53:03;271.90;;;40.30;;
5774;SDS011;2913;51.120;6.772;2024-02-28T07:55:33;249.82;;;38.65;;
5774;SDS011;2913;51.120;6.772;2024-02-28T07:57:59;245.63;;;38.80;;
5774;SDS011;2913;51.120;6.772;2024-02-28T08:00:27;263.45;;;39.35;;
5774;SDS011;2913;51.120;6.772;2024-02-28T08:02:56;234.13;;;35.28;;
5774;SDS011;2913;51.120;6.772;2024-02-28T08:05:23;245.52;;;40.17;;
5774;SDS011;2913;51.120;6.772;2024-02-28T08:07:52;224.48;;;37.95;;
5774;SDS011;2913;51.120;6.772;2024-02-28T08:10:20;245.55;;;37.67;;
5774;SDS011;2913;51.120;6.772;2024-02-28T08:12:46;233.30;;;37.30;;
5774;SDS011;2913;51.120;6.772;2024-02-28T08:15:11;247.20;;;37.35;;
5774;SDS011;2913;51.120;6.772;2024-02-28T08:17:37;190.82;;;33.28;;
5774;SDS011;2913;51.120;6.772;2024-02-28T08:20:05;241.95;;;39.88;;
5774;SDS011;2913;51.120;6.772;2024-02-28T08:22:34;216.45;;;36.33;;
5774;SDS011;2913;51.120;6.772;2024-02-28T08:25:01;241.05;;;36.13;;
5774;SDS011;2913;51.120;6.772;2024-02-28T08:27:27;239.93;;;36.72;;
5774;SDS011;2913;51.120;6.772;2024-02-28T08:29:55;216.88;;;37.58;;
5774;SDS011;2913;51.120;6.772;2024-02-28T08:32:23;234.30;;;38.60;;
5774;SDS011;2913;51.120;6.772;2024-02-28T08:34:48;236.57;;;37.08;;
5774;SDS011;2913;51.120;6.772;2024-02-28T08:37:14;227.93;;;37.10;;
5774;SDS011;2913;51.120;6.772;2024-02-28T08:39:40;220.60;;;36.63;;
5774;SDS011;2913;51.120;6.772;2024-02-28T08:42:06;232.13;;;38.45;;
5774;SDS011;2913;51.120;6.772;2024-02-28T08:44:34;238.15;;;39.35;;
5774;SDS011;2913;51.120;6.772;2024-02-28T08:47:02;220.60;;;37.28;;
5774;SDS011;2913;51.120;6.772;2024-02-28T08:49:27;219.23;;;41.35;;
5774;SDS011;2913;51.120;6.772;2024-02-28T08:51:54;227.23;;;38.88;;
5774;SDS011;2913;51.120;6.772;2024-02-28T08:54:22;221.38;;;37.47;;
5774;SDS011;2913;51.120;6.772;2024-02-28T08:56:50;232.85;;;36.53;;
5774;SDS011;2913;51.120;6.772;2024-02-28T08:59:16;229.93;;;36.22;;
5774;SDS011;2913;51.120;6.772;2024-02-28T09:01:42;221.00;;;38.33;;
5774;SDS011;2913;51.120;6.772;2024-02-28T09:04:07;205.90;;;37.42;;
5774;SDS011;2913;51.120;6.772;2024-02-28T09:06:35;216.98;;;36.63;;
5774;SDS011;2913;51.120;6.772;2024-02-28T09:09:01;202.43;;;33.30;;
5774;SDS011;2913;51.120;6.772;2024-02-28T09:11:28;204.80;;;38.15;;
5774;SDS011;2913;51.120;6.772;2024-02-28T09:13:53;199.63;;;34.50;;
5774;SDS011;2913;51.120;6.772;2024-02-28T09:16:19;215.23;;;38.28;;
5774;SDS011;2913;51.120;6.772;2024-02-28T09:18:50;195.63;;;36.60;;
5774;SDS011;2913;51.120;6.772;2024-02-28T09:21:18;187.35;;;35.13;;
5774;SDS011;2913;51.120;6.772;2024-02-28T09:23:44;186.82;;;37.60;;
5774;SDS011;2913;51.120;6.772;2024-02-28T09:26:11;224.98;;;39.03;;
5774;SDS011;2913;51.120;6.772;2024-02-28T09:28:40;151.60;;;30.35;;
5774;SDS011;2913;51.120;6.772;2024-02-28T09:31:06;171.98;;;32.33;;
5774;SDS011;2913;51.120;6.772;2024-02-28T09:33:34;178.98;;;34.55;;
5774;SDS011;2913;51.120;6.772;2024-02-28T09:36:01;216.32;;;42.88;;
5774;SDS011;2913;51.120;6.772;2024-02-28T09:38:29;193.93;;;39.92;;
5774;SDS011;2913;51.120;6.772;2024-02-28T09:40:59;192.55;;;37.97;;
5774;SDS011;2913;51.120;6.772;2024-02-28T09:43:29;184.65;;;36.45;;
5774;SDS011;2913;51.120;6.772;2024-02-28T09:46:03;191.68;;;37.15;;
5774;SDS011;2913;51.120;6.772;2024-02-28T09:48:29;192.23;;;35.25;;
5774;SDS011;2913;51.120;6.772;2024-02-28T09:50:59;185.40;;;37.08;;
5774;SDS011;2913;51.120;6.772;2024-02-28T09:53:25;185.95;;;36.67;;
5774;SDS011;2913;51.120;6.772;2024-02-28T09:55:54;179.05;;;33.40;;
5774;SDS011;2913;51.120;6.772;2024-02-28T09:58:20;178.18;;;34.67;;
5774;SDS011;2913;51.120;6.772;2024-02-28T10:00:46;171.43;;;34.60;;
5774;SDS011;2913;51.120;6.772;2024-02-28T10:03:13;172.30;;;32.10;;
5774;SDS011;2913;51.120;6.772;2024-02-28T10:05:43;160.07;;;33.03;;
5774;SDS011;2913;51.120;6.772;2024-02-28T10:08:10;170.93;;;33.10;;
5774;SDS011;2913;51.120;6.772;2024-02-28T10:10:37;164.43;;;32.70;;
5774;SDS011;2913;51.120;6.772;2024-02-28T10:13:03;174.40;;;34.17;;
5774;SDS011;2913;51.120;6.772;2024-02-28T10:15:30;99.20;;;24.30;;
5774;SDS011;2913;51.120;6.772;2024-02-28T10:17:56;182.32;;;35.45;;
5774;SDS011;2913;51.120;6.772;2024-02-28T10:20:22;187.10;;;37.15;;
5774;SDS011;2913;51.120;6.772;2024-02-28T10:22:47;185.75;;;36.50;;
5774;SDS011;2913;51.120;6.772;2024-02-28T10:25:13;212.07;;;39.00;;
5774;SDS011;2913;51.120;6.772;2024-02-28T10:27:42;192.88;;;36.60;;
5774;SDS011;2913;51.120;6.772;2024-02-28T10:30:08;178.05;;;34.75;;
5774;SDS011;2913;51.120;6.772;2024-02-28T10:32:36;182.07;;;36.92;;
5774;SDS011;2913;51.120;6.772;2024-02-28T10:35:12;197.48;;;39.20;;
5774;SDS011;2913;51.120;6.772;2024-02-28T10:37:41;190.73;;;39.00;;
5774;SDS011;2913;51.120;6.772;2024-02-28T10:40:07;199.25;;;38.83;;
5774;SDS011;2913;51.120;6.772;2024-02-28T10:42:33;194.73;;;39.25;;
5774;SDS011;2913;51.120;6.772;2024-02-28T10:45:00;201.60;;;40.03;;
5774;SDS011;2913;51.120;6.772;2024-02-28T10:47:32;200.93;;;36.28;;
5774;SDS011;2913;51.120;6.772;2024-02-28T10:49:58;187.63;;;35.28;;
5774;SDS011;2913;51.120;6.772;2024-02-28T10:52:26;179.82;;;35.38;;
5774;SDS011;2913;51.120;6.772;2024-02-28T10:54:54;184.32;;;36.10;;
5774;SDS011;2913;51.120;6.772;2024-02-28T10:57:21;169.27;;;34.92;;
5774;SDS011;2913;51.120;6.772;2024-02-28T10:59:49;175.60;;;34.63;;
5774;SDS011;2913;51.120;6.772;2024-02-28T11:02:20;169.35;;;36.67;;
5774;SDS011;2913;51.120;6.772;2024-02-28T11:04:48;158.23;;;30.63;;
5774;SDS011;2913;51.120;6.772;2024-02-28T11:07:25;182.15;;;34.60;;
5774;SDS011;2913;51.120;6.772;2024-02-28T11:09:54;174.40;;;35.30;;
5774;SDS011;2913;51.120;6.772;2024-02-28T11:12:24;192.52;;;37.00;;
5774;SDS011;2913;51.120;6.772;2024-02-28T11:15:03;157.27;;;34.05;;
5774;SDS011;2913;51.120;6.772;2024-02-28T11:17:32;158.48;;;31.25;;
5774;SDS011;2913;51.120;6.772;2024-02-28T11:19:58;160.65;;;32.28;;
5774;SDS011;2913;51.120;6.772;2024-02-28T11:22:29;165.75;;;36.28;;
5774;SDS011;2913;51.120;6.772;2024-02-28T11:24:57;174.50;;;36.60;;
5774;SDS011;2913;51.120;6.772;2024-02-28T11:27:23;135.80;;;29.63;;
5774;SDS011;2913;51.120;6.772;2024-02-28T11:29:48;181.88;;;37.83;;
5774;SDS011;2913;51.120;6.772;2024-02-28T11:32:17;174.75;;;36.10;;
5774;SDS011;2913;51.120;6.772;2024-02-28T11:34:45;147.90;;;31.10;;
5774;SDS011;2913;51.120;6.772;2024-02-28T11:37:15;165.48;;;34.03;;
5774;SDS011;2913;51.120;6.772;2024-02-28T11:39:43;148.15;;;32.35;;
5774;SDS011;2913;51.120;6.772;2024-02-28T11:42:12;166.18;;;32.67;;
5774;SDS011;2913;51.120;6.772;2024-02-28T11:44:38;147.57;;;31.30;;
5774;SDS011;2913;51.120;6.772;2024-02-28T11:47:05;156.90;;;31.00;;
5774;SDS011;2913;51.120;6.772;2024-02-28T11:49:34;138.05;;;31.23;;
5774;SDS011;2913;51.120;6.772;2024-02-28T11:52:00;154.77;;;34.28;;
5774;SDS011;2913;51.120;6.772;2024-02-28T11:54:25;135.63;;;28.67;;
5774;SDS011;2913;51.120;6.772;2024-02-28T11:56:51;153.98;;;32.08;;
5774;SDS011;2913;51.120;6.772;2024-02-28T11:59:19;147.32;;;30.60;;
5774;SDS011;2913;51.120;6.772;2024-02-28T12:01:44;146.05;;;31.23;;
5774;SDS011;2913;51.120;6.772;2024-02-28T12:04:11;126.70;;;26.90;;
5774;SDS011;2913;51.120;6.772;2024-02-28T12:06:38;191.02;;;34.50;;
5774;SDS011;2913;51.120;6.772;2024-02-28T12:09:05;136.10;;;29.65;;
5774;SDS011;2913;51.120;6.772;2024-02-28T12:11:33;165.23;;;34.72;;
5774;SDS011;2913;51.120;6.772;2024-02-28T12:14:04;189.63;;;41.10;;
5774;SDS011;2913;51.120;6.772;2024-02-28T12:16:36;154.77;;;33.40;;
5774;SDS011;2913;51.120;6.772;2024-02-28T12:19:07;157.23;;;34.25;;
5774;SDS011;2913;51.120;6.772;2024-02-28T12:21:36;150.45;;;33.38;;
5774;SDS011;2913;51.120;6.772;2024-02-28T12:24:04;126.00;;;30.40;;
5774;SDS011;2913;51.120;6.772;2024-02-28T12:26:32;165.30;;;35.17;;
5774;SDS011;2913;51.120;6.772;2024-02-28T12:28:58;169.98;;;36.50;;
5774;SDS011;2913;51.120;6.772;2024-02-28T12:31:23;154.82;;;33.40;;
5774;SDS011;2913;51.120;6.772;2024-02-28T12:33:49;163.82;;;34.83;;
5774;SDS011;2913;51.120;6.772;2024-02-28T12:36:15;155.27;;;32.25;;
5774;SDS011;2913;51.120;6.772;2024-02-28T12:38:42;119.53;;;27.63;;
5774;SDS011;2913;51.120;6.772;2024-02-28T12:41:08;142.25;;;30.40;;
5774;SDS011;2913;51.120;6.772;2024-02-28T12:43:34;148.00;;;31.38;;
5774;SDS011;2913;51.120;6.772;2024-02-28T12:46:00;150.23;;;33.13;;
5774;SDS011;2913;51.120;6.772;2024-02-28T12:48:30;138.70;;;30.50;;
5774;SDS011;2913;51.120;6.772;2024-02-28T12:50:56;141.45;;;32.45;;
5774;SDS011;2913;51.120;6.772;2024-02-28T12:53:25;141.05;;;31.15;;
5774;SDS011;2913;51.120;6.772;2024-02-28T12:55:51;140.07;;;30.65;;
5774;SDS011;2913;51.120;6.772;2024-02-28T12:58:16;147.88;;;31.45;;
5774;SDS011;2913;51.120;6.772;2024-02-28T13:00:44;127.72;;;28.15;;
5774;SDS011;2913;51.120;6.772;2024-02-28T13:03:10;156.27;;;32.53;;
5774;SDS011;2913;51.120;6.772;2024-02-28T13:05:36;143.23;;;32.00;;
5774;SDS011;2913;51.120;6.772;2024-02-28T13:08:03;115.43;;;28.00;;
5774;SDS011;2913;51.120;6.772;2024-02-28T13:10:32;132.38;;;27.38;;
5774;SDS011;2913;51.120;6.772;2024-02-28T13:13:01;118.72;;;27.40;;
5774;SDS011;2913;51.120;6.772;2024-02-28T13:15:29;129.30;;;27.70;;
5774;SDS011;2913;51.120;6.772;2024-02-28T13:17:54;116.65;;;27.42;;
5774;SDS011;2913;51.120;6.772;2024-02-28T13:20:20;116.10;;;26.27;;
5774;SDS011;2913;51.120;6.772;2024-02-28T13:22:46;110.05;;;26.70;;
5774;SDS011;2913;51.120;6.772;2024-02-28T13:25:12;116.65;;;25.48;;
5774;SDS011;2913;51.120;6.772;2024-02-28T13:27:39;120.82;;;26.27;;
5774;SDS011;2913;51.120;6.772;2024-02-28T13:30:10;112.15;;;25.25;;
5774;SDS011;2913;51.120;6.772;2024-02-28T13:32:35;113.05;;;26.17;;
5774;SDS011;2913;51.120;6.772;2024-02-28T13:35:01;112.72;;;25.92;;
5774;SDS011;2913;51.120;6.772;2024-02-28T13:37:27;99.60;;;24.88;;
5774;SDS011;2913;51.120;6.772;2024-02-28T13:39:56;93.07;;;24.00;;
5774;SDS011;2913;51.120;6.772;2024-02-28T13:42:25;106.90;;;25.08;;
5774;SDS011;2913;51.120;6.772;2024-02-28T13:44:52;109.95;;;24.45;;
5774;SDS011;2913;51.120;6.772;2024-02-28T13:47:20;106.60;;;25.08;;
5774;SDS011;2913;51.120;6.772;2024-02-28T13:49:48;99.20;;;24.30;;
5774;SDS011;2913;51.120;6.772;2024-02-28T13:52:15;102.47;;;23.35;;
5774;SDS011;2913;51.120;6.772;2024-02-28T13:54:41;113.55;;;26.70;;
5774;SDS011;2913;51.120;6.772;2024-02-28T13:57:06;100.55;;;25.27;;
5774;SDS011;2913;51.120;6.772;2024-02-28T13:59:32;109.63;;;26.95;;
5774;SDS011;2913;51.120;6.772;2024-02-28T14:02:00;110.47;;;24.55;;
5774;SDS011;2913;51.120;6.772;2024-02-28T14:04:28;112.70;;;25.80;;
5774;SDS011;2913;51.120;6.772;2024-02-28T14:06:56;107.80;;;25.42;;
5774;SDS011;2913;51.120;6.772;2024-02-28T14:09:21;103.07;;;24.85;;
5774;SDS011;2913;51.120;6.772;2024-02-28T14:11:47;111.20;;;26.58;;
5774;SDS011;2913;51.120;6.772;2024-02-28T14:14:15;117.70;;;25.63;;
5774;SDS011;2913;51.120;6.772;2024-02-28T14:16:41;111.03;;;26.85;;
5774;SDS011;2913;51.120;6.772;2024-02-28T14:19:07;107.18;;;24.35;;
5774;SDS011;2913;51.120;6.772;2024-02-28T14:21:37;112.63;;;24.05;;
5774;SDS011;2913;51.120;6.772;2024-02-28T14:24:03;86.57;;;22.08;;
5774;SDS011;2913;51.120;6.772;2024-02-28T14:26:32;79.88;;;20.70;;
5774;SDS011;2913;51.120;6.772;2024-02-28T14:28:59;92.93;;;20.30;;
5774;SDS011;2913;51.120;6.772;2024-02-28T14:31:26;77.15;;;19.35;;
5774;SDS011;2913;51.120;6.772;2024-02-28T14:33:54;86.22;;;22.42;;
5774;SDS011;2913;51.120;6.772;2024-02-28T14:36:20;94.88;;;21.98;;
5774;SDS011;2913;51.120;6.772;2024-02-28T14:38:45;100.68;;;21.27;;